Time;durP1;ratioP1;P1;durP2;ratioP2;P2;SDS_P1;SDS_P2;PMS_P1;PMS_P2;Temp;Humidity;BMP_temperature;BMP_pressure;BME280_temperature;BME280_humidity;BME280_pressure;Samples;Min_cycle;Max_cycle;Signal;HPM_P1;HPM_P2
2022/12/27 00:00:05;;;;;;;22.13;5.45;;;28.40;76.40;;;;;;5108178;28;20020;-56
2022/12/27 00:02:32;;;;;;;22.80;5.95;;;28.40;76.50;;;;;;5108838;28;20055;-56
2022/12/27 00:05:00;;;;;;;17.90;5.00;;;28.30;76.40;;;;;;5108092;28;20102;-56
2022/12/27 00:07:26;;;;;;;19.00;5.55;;;28.30;76.40;;;;;;5108155;28;20070;-57
2022/12/27 00:09:54;;;;;;;21.58;5.53;;;28.30;76.40;;;;;;5108200;28;20036;-56
2022/12/27 00:12:21;;;;;;;23.45;6.20;;;28.20;76.50;;;;;;5107700;28;20104;-58
2022/12/27 00:14:50;;;;;;;20.17;5.68;;;28.20;76.50;;;;;;5108191;28;20030;-55
2022/12/27 00:17:17;;;;;;;18.35;5.50;;;28.20;76.60;;;;;;5108314;28;20182;-59
2022/12/27 00:19:44;;;;;;;18.50;4.93;;;28.10;76.50;;;;;;5107808;28;20020;-57
2022/12/27 00:22:10;;;;;;;20.23;5.45;;;28.10;76.30;;;;;;5107041;28;20012;-55
2022/12/27 00:24:39;;;;;;;15.02;5.22;;;28.10;76.20;;;;;;5107300;28;20043;-57
2022/12/27 00:27:05;;;;;;;15.85;5.15;;;28.10;76.10;;;;;;5107360;28;20020;-56
2022/12/27 00:29:32;;;;;;;14.43;5.20;;;28.10;76.10;;;;;;5107278;28;20032;-55
2022/12/27 00:31:59;;;;;;;19.48;5.90;;;28.00;76.00;;;;;;5107286;28;20019;-57
2022/12/27 00:34:26;;;;;;;23.98;5.80;;;28.00;76.00;;;;;;5107023;28;20043;-55
2022/12/27 00:36:53;;;;;;;21.00;5.63;;;28.00;75.80;;;;;;5107364;28;20051;-55
2022/12/27 00:39:19;;;;;;;26.55;4.88;;;28.00;75.90;;;;;;5088781;28;20036;-56
2022/12/27 00:41:46;;;;;;;20.88;5.10;;;28.00;75.90;;;;;;5107318;28;20028;-54
2022/12/27 00:44:16;;;;;;;22.63;5.18;;;27.90;75.80;;;;;;5108146;28;20048;-57
2022/12/27 00:46:48;;;;;;;19.48;5.32;;;27.90;75.70;;;;;;5107204;28;20028;-55
2022/12/27 00:49:18;;;;;;;16.60;4.85;;;27.90;75.70;;;;;;5107039;28;20020;-58
2022/12/27 00:52:04;;;;;;;18.85;4.88;;;27.90;75.80;;;;;;5107822;28;20079;-55
2022/12/27 00:54:32;;;;;;;17.13;5.30;;;27.80;75.70;;;;;;5089043;28;20024;-56
2022/12/27 00:56:59;;;;;;;26.20;5.55;;;27.80;75.70;;;;;;5089043;28;20038;-56
2022/12/27 00:59:26;;;;;;;33.45;5.03;;;27.80;75.60;;;;;;5106564;28;20251;-55
2022/12/27 01:01:53;;;;;;;27.50;4.93;;;27.80;75.60;;;;;;5088906;28;20016;-56
2022/12/27 01:04:19;;;;;;;23.58;5.78;;;27.80;75.60;;;;;;5106856;28;20067;-56
2022/12/27 01:06:51;;;;;;;18.95;5.47;;;27.80;75.50;;;;;;5106397;28;20020;-54
2022/12/27 01:09:18;;;;;;;21.98;4.82;;;27.80;75.50;;;;;;5107731;28;20095;-54
2022/12/27 01:11:50;;;;;;;22.75;5.38;;;27.70;75.30;;;;;;5108170;28;20028;-57
2022/12/27 01:14:17;;;;;;;23.33;5.50;;;27.70;75.30;;;;;;5107743;28;20070;-54
2022/12/27 01:16:46;;;;;;;17.85;5.05;;;27.70;75.40;;;;;;5107623;28;20055;-54
2022/12/27 01:19:32;;;;;;;16.98;5.38;;;27.70;75.40;;;;;;5107780;28;20019;-54
2022/12/27 01:21:59;;;;;;;14.75;4.35;;;27.70;75.30;;;;;;5106842;28;20095;-55
2022/12/27 01:24:28;;;;;;;11.48;4.70;;;27.60;75.30;;;;;;5106881;28;20012;-56
2022/12/27 01:26:55;;;;;;;17.08;4.60;;;27.60;75.20;;;;;;5088193;28;20127;-55
2022/12/27 01:29:21;;;;;;;13.10;4.43;;;27.60;75.00;;;;;;5106674;28;20051;-55
2022/12/27 01:31:50;;;;;;;16.45;4.53;;;27.20;75.30;;;;;;5106487;28;20382;-53
2022/12/27 01:34:17;;;;;;;24.70;4.90;;;26.90;76.30;;;;;;5106063;28;20043;-55
2022/12/27 01:36:45;;;;;;;22.95;4.82;;;27.00;76.80;;;;;;5106170;28;20038;-56
2022/12/27 01:39:12;;;;;;;26.17;5.20;;;27.00;76.40;;;;;;5106404;28;20043;-56
2022/12/27 01:44:45;;;;;;;18.48;4.43;;;27.30;76.20;;;;;;5106498;28;20065;-55
2022/12/27 01:47:18;;;;;;;19.20;4.25;;;27.30;75.90;;;;;;5105671;28;20325;-57
2022/12/27 01:49:52;;;;;;;18.58;4.07;;;27.30;75.80;;;;;;5106017;28;20020;-57
2022/12/27 01:52:19;;;;;;;15.77;3.92;;;27.40;75.80;;;;;;5105847;28;20324;-56
2022/12/27 01:54:46;;;;;;;14.43;4.40;;;27.40;75.70;;;;;;5105933;28;20126;-55
2022/12/27 01:57:13;;;;;;;19.17;4.65;;;27.40;75.60;;;;;;5105366;28;20235;-53
2022/12/27 01:59:40;;;;;;;16.52;4.45;;;27.40;75.50;;;;;;5106126;28;20016;-55
2022/12/27 02:02:08;;;;;;;54.42;7.30;;;27.40;75.40;;;;;;5105432;28;20028;-55
2022/12/27 02:04:35;;;;;;;60.17;8.07;;;27.40;75.30;;;;;;5070382;28;20098;-54
2022/12/27 02:07:03;;;;;;;44.08;6.60;;;27.40;75.30;;;;;;5105699;28;20039;-55
2022/12/27 02:09:42;;;;;;;34.92;5.68;;;27.40;75.30;;;;;;5106148;28;20070;-53
2022/12/27 02:15:03;;;;;;;26.15;4.95;;;27.40;75.50;;;;;;5105487;28;20035;-53
2022/12/27 02:17:32;;;;;;;23.63;4.78;;;27.40;75.60;;;;;;5087711;28;20036;-58
2022/12/27 02:20:08;;;;;;;14.93;4.25;;;27.40;75.60;;;;;;5105584;28;20034;-55
2022/12/27 02:25:31;;;;;;;12.27;3.65;;;27.30;75.50;;;;;;5105103;28;20085;-53
2022/12/27 02:28:54;;;;;;;17.13;4.25;;;27.40;76.10;;;;;;5105046;28;20036;-55
2022/12/27 02:31:52;;;;;;;10.80;3.80;;;27.30;75.50;;;;;;5023659;28;20021;-55
2022/12/27 02:34:25;;;;;;;11.55;4.10;;;27.30;75.50;;;;;;5105583;28;20044;-52
2022/12/27 02:36:58;;;;;;;12.40;3.80;;;27.30;75.60;;;;;;5105082;28;20016;-54
2022/12/27 02:39:26;;;;;;;11.25;3.50;;;27.30;75.60;;;;;;5104733;28;20036;-56
2022/12/27 02:54:15;;;;;;;14.55;3.42;;;27.30;75.50;;;;;;5105536;28;20054;-53
2022/12/27 02:57:08;;;;;;;12.13;3.50;;;27.30;75.50;;;;;;5076808;28;20028;-52
2022/12/27 03:03:19;;;;;;;9.60;3.50;;;27.20;75.40;;;;;;5106625;28;20095;-53
2022/12/27 03:06:38;;;;;;;19.17;4.00;;;27.20;75.40;;;;;;5100892;28;20078;-56
2022/12/27 03:08:40;;;;;;;15.02;3.95;;;27.10;75.20;;;;;;5097724;28;20040;-53
2022/12/27 03:17:26;;;;;;;12.65;3.20;;;27.20;74.80;;;;;;5121346;28;20034;-56
2022/12/27 03:25:32;;;;;;;8.85;3.30;;;27.10;74.70;;;;;;5123965;28;20415;-54
2022/12/27 03:34:30;;;;;;;14.48;3.63;;;27.20;74.30;;;;;;5097593;28;20039;-53
2022/12/27 03:39:39;;;;;;;12.55;3.80;;;27.20;73.80;;;;;;5112358;28;20095;-53
2022/12/27 03:45:12;;;;;;;6.43;3.03;;;27.20;73.30;;;;;;5102998;28;20031;-60
2022/12/27 03:47:48;;;;;;;6.50;2.80;;;27.20;73.40;;;;;;5096778;28;20032;-53
2022/12/27 03:50:27;;;;;;;9.43;3.33;;;27.20;73.20;;;;;;5090688;28;20052;-53
2022/12/27 03:53:15;;;;;;;8.15;2.90;;;27.20;73.10;;;;;;5083658;28;20032;-52
2022/12/27 03:55:42;;;;;;;9.35;2.65;;;27.10;72.90;;;;;;5066113;28;20024;-53
2022/12/27 03:58:09;;;;;;;9.02;3.40;;;27.10;73.00;;;;;;5083864;28;20259;-52
2022/12/27 04:00:36;;;;;;;10.27;2.97;;;27.10;72.70;;;;;;5065251;28;20012;-54
2022/12/27 04:03:03;;;;;;;10.38;3.47;;;27.10;72.80;;;;;;5083645;28;20063;-54
2022/12/27 04:05:29;;;;;;;7.88;4.47;;;27.10;72.80;;;;;;5083578;28;20024;-53
2022/12/27 04:35:25;;;;;;;10.93;7.13;;;27.00;72.30;;;;;;5103620;28;20054;-51
2022/12/27 04:37:52;;;;;;;12.35;7.25;;;26.90;72.10;;;;;;5118260;28;20024;-53
2022/12/27 04:55:13;;;;;;;8.55;3.58;;;26.90;72.00;;;;;;5097320;28;20046;-52
2022/12/27 04:57:40;;;;;;;7.13;3.65;;;26.90;71.80;;;;;;5096896;28;20028;-52
2022/12/27 05:02:52;;;;;;;6.40;3.08;;;26.90;71.60;;;;;;5092227;28;20027;-53
2022/12/27 05:05:18;;;;;;;8.10;3.22;;;26.80;71.70;;;;;;5094812;28;20216;-53
2022/12/27 05:16:01;;;;;;;6.07;3.10;;;26.80;71.70;;;;;;5102176;28;20393;-53
2022/12/27 05:18:28;;;;;;;5.65;3.00;;;26.80;71.70;;;;;;5103442;28;20327;-53
2022/12/27 05:20:54;;;;;;;7.03;2.78;;;26.70;71.70;;;;;;5105491;28;20205;-52
2022/12/27 05:26:05;;;;;;;6.45;2.92;;;26.70;71.80;;;;;;5126926;28;20015;-52
2022/12/27 05:28:32;;;;;;;5.25;2.78;;;26.70;71.80;;;;;;5106947;28;20042;-52
2022/12/27 05:31:02;;;;;;;6.25;2.90;;;26.60;71.70;;;;;;5106011;28;20280;-54
2022/12/27 05:33:31;;;;;;;7.03;3.15;;;26.60;71.70;;;;;;5106671;28;20077;-53
2022/12/27 05:35:59;;;;;;;7.55;2.60;;;26.60;71.80;;;;;;5106595;28;20060;-53
2022/12/27 05:38:26;;;;;;;5.15;2.90;;;26.60;71.60;;;;;;5106044;28;20319;-53
2022/12/27 05:41:01;;;;;;;5.43;2.60;;;26.60;71.40;;;;;;5095993;28;20092;-52
2022/12/27 05:43:28;;;;;;;6.75;2.97;;;26.60;71.40;;;;;;5094546;28;20028;-51
2022/12/27 05:45:55;;;;;;;9.65;2.80;;;26.60;71.30;;;;;;5085497;28;20317;-52
2022/12/27 05:48:22;;;;;;;5.97;2.78;;;26.60;71.40;;;;;;5085528;28;20020;-52
2022/12/27 05:50:48;;;;;;;3.90;2.30;;;26.50;71.30;;;;;;5085192;28;20036;-55
2022/12/27 05:53:15;;;;;;;6.30;2.83;;;26.50;71.80;;;;;;5085280;28;20049;-53
2022/12/27 05:55:42;;;;;;;6.57;2.30;;;26.50;71.30;;;;;;5085157;28;20190;-64
2022/12/27 05:58:08;;;;;;;6.03;2.72;;;26.50;71.30;;;;;;5085159;28;20036;-61
2022/12/27 06:00:35;;;;;;;6.93;2.78;;;26.50;71.20;;;;;;5085186;28;20076;-52
2022/12/27 06:03:02;;;;;;;6.32;2.72;;;26.50;71.20;;;;;;5085083;28;20021;-54
2022/12/27 06:05:31;;;;;;;6.63;2.72;;;26.40;70.90;;;;;;5085067;28;20360;-53
2022/12/27 06:07:58;;;;;;;6.05;2.60;;;26.50;71.00;;;;;;5084938;28;20036;-53
2022/12/27 06:10:25;;;;;;;7.00;2.70;;;26.50;70.90;;;;;;5084938;28;20091;-53
2022/12/27 06:12:51;;;;;;;6.13;2.50;;;26.40;70.80;;;;;;5085094;28;20309;-54
2022/12/27 06:15:18;;;;;;;6.13;2.65;;;26.40;70.70;;;;;;5084663;28;20087;-52
2022/12/27 06:17:44;;;;;;;8.05;3.00;;;26.40;70.60;;;;;;5093005;28;20019;-56
2022/12/27 06:20:11;;;;;;;6.25;2.53;;;26.40;70.60;;;;;;5099165;28;20016;-52
2022/12/27 06:22:38;;;;;;;6.60;2.55;;;26.50;70.40;;;;;;5098897;28;20038;-54
2022/12/27 06:25:05;;;;;;;5.32;2.55;;;26.40;70.40;;;;;;5093846;28;20055;-52
2022/12/27 06:27:31;;;;;;;6.22;2.45;;;26.40;70.30;;;;;;5097259;28;20028;-54
2022/12/27 06:29:58;;;;;;;5.50;2.60;;;26.40;70.30;;;;;;5104895;28;20044;-54
2022/12/27 06:32:24;;;;;;;5.75;2.65;;;26.40;70.30;;;;;;5105176;28;20024;-56
2022/12/27 06:34:51;;;;;;;5.88;2.58;;;26.40;70.30;;;;;;5105433;28;20039;-54
2022/12/27 06:37:17;;;;;;;5.30;2.47;;;26.40;70.30;;;;;;5104626;28;20028;-51
2022/12/27 06:39:44;;;;;;;5.70;2.67;;;26.40;70.30;;;;;;5104567;28;20032;-52
2022/12/27 06:42:12;;;;;;;6.70;3.05;;;26.40;70.30;;;;;;5103389;28;20012;-52
2022/12/27 06:44:39;;;;;;;10.52;3.45;;;26.40;70.40;;;;;;5097239;28;20212;-53
2022/12/27 06:47:05;;;;;;;7.65;3.08;;;26.30;70.30;;;;;;5097491;28;20016;-49
2022/12/27 06:49:32;;;;;;;6.28;3.00;;;26.30;70.30;;;;;;5097734;28;20028;-52
2022/12/27 06:51:58;;;;;;;6.72;2.85;;;26.30;70.30;;;;;;5098396;28;20479;-51
2022/12/27 06:54:25;;;;;;;5.82;2.97;;;26.30;70.40;;;;;;5099297;28;20024;-52
2022/12/27 06:56:52;;;;;;;5.43;2.72;;;26.30;70.40;;;;;;5097277;28;20308;-52
2022/12/27 06:59:18;;;;;;;7.78;3.00;;;26.30;70.40;;;;;;5098107;28;20413;-52
2022/12/27 07:01:45;;;;;;;7.82;2.80;;;26.30;70.40;;;;;;5096734;28;20103;-52
2022/12/27 07:04:11;;;;;;;6.50;2.75;;;26.30;70.40;;;;;;5095825;28;20311;-52
2022/12/27 07:06:38;;;;;;;5.32;2.63;;;26.30;70.50;;;;;;5094033;28;20026;-54
2022/12/27 07:09:05;;;;;;;7.45;2.85;;;26.30;70.50;;;;;;5099047;28;20098;-55
2022/12/27 07:11:35;;;;;;;8.60;3.05;;;26.30;70.40;;;;;;5099215;28;20015;-54
2022/12/27 07:14:03;;;;;;;7.10;3.03;;;26.30;70.40;;;;;;5104474;28;20063;-58
2022/12/27 07:16:30;;;;;;;7.88;2.92;;;26.30;70.40;;;;;;5104595;28;20035;-53
2022/12/27 07:18:58;;;;;;;5.07;2.70;;;26.30;70.20;;;;;;5105262;28;20016;-53
2022/12/27 07:21:27;;;;;;;5.97;2.90;;;26.30;70.30;;;;;;5104353;28;20032;-54
2022/12/27 07:23:54;;;;;;;6.35;2.67;;;26.30;70.30;;;;;;5104706;28;20028;-53
2022/12/27 07:26:26;;;;;;;5.97;2.38;;;26.30;70.20;;;;;;5104217;28;20036;-53
2022/12/27 07:28:54;;;;;;;5.82;2.80;;;26.30;70.10;;;;;;5104319;28;20020;-51
2022/12/27 07:31:23;;;;;;;5.47;2.65;;;26.30;70.00;;;;;;5104056;28;20056;-55
2022/12/27 07:33:50;;;;;;;4.13;2.58;;;26.30;69.90;;;;;;5105224;28;20024;-53
2022/12/27 07:36:20;;;;;;;6.50;2.55;;;26.30;69.90;;;;;;5103997;28;20016;-54
2022/12/27 07:38:47;;;;;;;6.03;2.42;;;26.30;69.80;;;;;;5104418;28;20032;-57
2022/12/27 07:41:15;;;;;;;4.65;2.90;;;26.30;69.80;;;;;;5104097;28;20016;-54
2022/12/27 07:43:43;;;;;;;8.48;3.15;;;26.30;69.60;;;;;;5104367;28;20296;-56
2022/12/27 07:46:18;;;;;;;6.03;2.63;;;26.20;69.90;;;;;;5104078;28;20016;-53
2022/12/27 07:48:46;;;;;;;7.05;3.05;;;26.20;69.40;;;;;;5104522;28;20028;-54
2022/12/27 07:51:14;;;;;;;6.53;2.50;;;26.20;69.40;;;;;;5103892;28;20044;-54
2022/12/27 07:53:40;;;;;;;4.75;2.33;;;26.20;69.30;;;;;;5104271;28;20208;-54
2022/12/27 07:56:17;;;;;;;4.47;2.50;;;26.20;69.40;;;;;;5108201;28;20265;-55
2022/12/27 07:58:47;;;;;;;5.55;2.70;;;26.20;69.40;;;;;;5104461;28;20039;-54
2022/12/27 08:01:16;;;;;;;8.40;2.83;;;26.20;69.50;;;;;;5104284;28;20046;-54
2022/12/27 08:03:43;;;;;;;5.93;2.30;;;26.20;69.50;;;;;;5106433;28;20366;-55
2022/12/27 08:06:32;;;;;;;7.93;2.85;;;26.20;69.50;;;;;;5108039;28;20019;-53
2022/12/27 08:09:03;;;;;;;8.55;2.78;;;26.20;69.50;;;;;;5108005;28;20347;-54
2022/12/27 08:11:29;;;;;;;8.13;2.95;;;26.10;69.50;;;;;;5107546;28;20331;-54
2022/12/27 08:13:56;;;;;;;8.05;3.10;;;26.10;69.50;;;;;;5107547;28;20320;-56
2022/12/27 08:16:25;;;;;;;7.82;3.20;;;26.10;69.60;;;;;;5107589;28;20031;-53
2022/12/27 08:18:54;;;;;;;7.70;2.88;;;26.10;69.60;;;;;;5110829;28;20083;-55
2022/12/27 08:21:22;;;;;;;10.75;3.03;;;26.10;69.60;;;;;;5110034;28;20015;-55
2022/12/27 08:23:49;;;;;;;6.15;2.90;;;26.10;69.70;;;;;;5093689;28;20028;-54
2022/12/27 08:26:16;;;;;;;8.00;2.88;;;26.10;69.60;;;;;;5107008;28;20042;-53
2022/12/27 08:28:42;;;;;;;6.70;2.75;;;26.10;69.60;;;;;;5107872;28;20079;-54
2022/12/27 08:31:10;;;;;;;5.93;2.97;;;26.00;69.50;;;;;;5107453;28;20087;-56
2022/12/27 08:33:38;;;;;;;10.05;2.80;;;26.00;69.50;;;;;;5106560;28;20103;-53
2022/12/27 08:36:10;;;;;;;7.15;2.60;;;26.10;69.60;;;;;;5106479;28;20027;-54
2022/12/27 08:38:36;;;;;;;6.25;2.78;;;26.00;69.70;;;;;;5106787;28;20028;-53
2022/12/27 08:41:03;;;;;;;9.63;2.85;;;26.00;69.70;;;;;;5107278;28;20012;-53
2022/12/27 08:43:29;;;;;;;8.27;3.05;;;26.00;69.70;;;;;;5107404;28;20027;-53
2022/12/27 08:46:04;;;;;;;10.98;3.47;;;26.00;69.80;;;;;;5106976;28;20034;-54
2022/12/27 08:48:32;;;;;;;6.50;2.90;;;26.00;69.80;;;;;;5107025;28;20026;-53
2022/12/27 08:51:08;;;;;;;9.52;3.17;;;26.00;69.90;;;;;;5106584;28;20054;-53
2022/12/27 08:53:35;;;;;;;7.28;2.92;;;26.00;70.50;;;;;;5107022;28;20256;-54
2022/12/27 08:56:02;;;;;;;6.72;3.05;;;26.00;70.00;;;;;;5106741;28;20324;-52
2022/12/27 08:58:28;;;;;;;9.02;3.55;;;26.00;70.00;;;;;;5106907;28;20168;-53
2022/12/27 09:00:55;;;;;;;6.35;2.55;;;26.00;70.00;;;;;;5105526;28;20012;-54
2022/12/27 09:03:21;;;;;;;8.60;3.17;;;26.00;70.00;;;;;;5106615;28;20039;-54
2022/12/27 09:05:51;;;;;;;7.72;3.25;;;26.00;70.10;;;;;;5106471;28;20031;-56
2022/12/27 09:08:17;;;;;;;7.43;2.92;;;25.90;70.10;;;;;;5106728;28;20161;-55
2022/12/27 09:10:44;;;;;;;6.25;2.80;;;25.90;70.20;;;;;;5106000;28;20027;-54
2022/12/27 09:13:10;;;;;;;5.95;2.50;;;25.90;70.30;;;;;;5088388;28;20256;-54
2022/12/27 09:15:38;;;;;;;6.70;2.75;;;25.90;70.40;;;;;;5104981;28;20060;-54
2022/12/27 09:18:05;;;;;;;4.85;2.80;;;26.00;70.40;;;;;;5106507;28;20020;-54
2022/12/27 09:20:32;;;;;;;7.88;3.28;;;26.00;70.50;;;;;;5106661;28;20066;-54
2022/12/27 09:22:59;;;;;;;7.85;2.95;;;26.00;70.50;;;;;;5106391;28;20257;-55
2022/12/27 09:25:26;;;;;;;5.63;2.80;;;26.00;70.40;;;;;;5106416;28;20043;-54
2022/12/27 09:27:54;;;;;;;6.20;2.63;;;25.90;70.50;;;;;;5105314;28;20028;-56
2022/12/27 09:30:20;;;;;;;9.82;3.15;;;25.90;70.60;;;;;;5105865;28;20032;-54
2022/12/27 09:32:47;;;;;;;6.93;2.50;;;25.90;70.40;;;;;;5107350;28;20020;-53
2022/12/27 09:35:13;;;;;;;10.88;3.15;;;26.00;70.40;;;;;;5105809;28;20030;-53
2022/12/27 09:37:40;;;;;;;6.88;3.17;;;25.90;70.30;;;;;;5105840;28;20016;-55
2022/12/27 09:40:08;;;;;;;9.73;3.10;;;26.00;70.50;;;;;;5106062;28;20028;-53
2022/12/27 09:42:42;;;;;;;8.68;2.97;;;26.00;70.50;;;;;;5105759;28;20023;-53
2022/12/27 09:45:14;;;;;;;7.20;2.85;;;26.00;70.30;;;;;;5105802;28;20016;-54
2022/12/27 09:48:21;;;;;;;8.48;2.95;;;26.00;70.40;;;;;;5105723;28;20324;-54
2022/12/27 09:50:54;;;;;;;8.30;2.90;;;26.00;70.50;;;;;;5003502;28;20323;-54
2022/12/27 09:53:38;;;;;;;5.82;2.75;;;26.00;70.70;;;;;;5092597;28;20308;-54
2022/12/27 09:56:05;;;;;;;8.35;2.70;;;26.00;70.30;;;;;;5105436;28;20115;-55
2022/12/27 09:58:47;;;;;;;7.35;2.80;;;26.00;70.10;;;;;;5104580;28;20020;-53
2022/12/27 10:01:16;;;;;;;5.82;2.28;;;26.00;70.10;;;;;;5100973;28;20091;-55
2022/12/27 10:03:43;;;;;;;4.28;2.17;;;26.00;69.90;;;;;;5086766;28;20043;-54
2022/12/27 10:06:27;;;;;;;5.63;2.58;;;26.00;69.90;;;;;;5105570;28;20138;-53
2022/12/27 10:09:17;;;;;;;4.68;2.15;;;26.00;69.90;;;;;;5105343;28;20328;-54
2022/12/27 10:11:59;;;;;;;5.32;2.65;;;26.00;69.80;;;;;;5105213;28;20031;-54
2022/12/27 10:14:32;;;;;;;;;;;26.00;69.80;;;;;;5106068;28;20032;-55
2022/12/27 10:17:01;;;;;;;8.85;2.88;;;26.00;69.90;;;;;;5104994;28;19946;-53
2022/12/27 10:19:44;;;;;;;6.95;2.65;;;26.00;69.90;;;;;;5105622;28;20019;-54
2022/12/27 10:22:44;;;;;;;4.07;2.60;;;26.00;69.80;;;;;;5105367;28;20065;-54
2022/12/27 10:25:14;;;;;;;6.63;2.65;;;26.00;70.00;;;;;;5104435;28;20316;-53
2022/12/27 10:27:41;;;;;;;6.47;2.70;;;26.00;70.10;;;;;;5104118;28;20096;-53
2022/12/27 10:30:29;;;;;;;4.22;2.38;;;26.00;70.10;;;;;;5103971;28;20043;-52
2022/12/27 10:32:55;;;;;;;6.25;2.97;;;26.00;70.10;;;;;;5100799;28;20044;-53
2022/12/27 10:35:23;;;;;;;8.95;3.28;;;26.00;70.20;;;;;;5104695;28;20039;-53
2022/12/27 10:37:52;;;;;;;8.45;2.65;;;26.00;70.50;;;;;;5104785;28;20336;-53
2022/12/27 10:40:37;;;;;;;10.50;3.15;;;26.00;70.70;;;;;;5104626;28;20020;-54
2022/12/27 10:43:10;;;;;;;10.23;3.05;;;26.00;70.70;;;;;;5106870;28;20023;-53
2022/12/27 10:45:38;;;;;;;14.43;3.20;;;26.00;70.70;;;;;;5103448;28;20083;-53
2022/12/27 10:48:24;;;;;;;10.98;2.88;;;26.00;70.80;;;;;;5105719;28;20040;-55
2022/12/27 10:51:14;;;;;;;6.15;2.97;;;26.00;70.90;;;;;;5103448;28;20111;-53
2022/12/27 10:53:44;;;;;;;9.75;3.03;;;25.90;70.90;;;;;;5098713;28;20035;-54
2022/12/27 10:56:15;;;;;;;10.70;3.17;;;26.00;71.20;;;;;;5103359;28;20023;-51
2022/12/27 10:58:50;;;;;;;7.70;2.70;;;25.90;70.70;;;;;;5104069;28;20039;-54
2022/12/27 11:01:28;;;;;;;13.77;3.75;;;26.00;70.90;;;;;;5104423;28;20020;-54
2022/12/27 11:04:15;;;;;;;12.75;3.72;;;26.00;70.70;;;;;;5104746;28;20201;-54
2022/12/27 11:06:42;;;;;;;10.75;3.20;;;26.00;70.70;;;;;;5104205;28;20020;-53
2022/12/27 11:09:26;;;;;;;10.30;3.80;;;26.00;70.50;;;;;;5104318;28;20028;-53
2022/12/27 11:12:31;;;;;;;11.00;3.38;;;26.00;70.60;;;;;;5103397;28;20016;-52
2022/12/27 11:15:12;;;;;;;19.83;3.03;;;26.00;70.40;;;;;;5101082;28;20024;-55
2022/12/27 11:17:43;;;;;;;17.13;3.55;;;26.00;70.30;;;;;;5099288;28;20014;-54
2022/12/27 11:20:22;;;;;;;15.25;3.10;;;26.00;70.20;;;;;;5099561;28;20028;-53
2022/12/27 11:22:49;;;;;;;10.90;3.45;;;26.00;70.10;;;;;;5102590;28;20046;-58
2022/12/27 11:25:15;;;;;;;15.30;3.55;;;26.00;69.90;;;;;;5104016;28;20031;-52
2022/12/27 11:28:04;;;;;;;15.90;3.67;;;26.00;70.10;;;;;;5103259;28;20208;-54
2022/12/27 11:30:30;;;;;;;14.95;3.70;;;26.00;69.90;;;;;;5103919;28;20020;-53
2022/12/27 11:33:18;;;;;;;14.80;3.45;;;26.00;69.70;;;;;;5103956;28;20028;-53
2022/12/27 11:35:48;;;;;;;15.85;3.97;;;26.00;69.80;;;;;;5103709;28;20358;-54
2022/12/27 11:38:28;;;;;;;21.00;4.22;;;26.00;70.10;;;;;;5104748;28;20028;-52
2022/12/27 11:41:08;;;;;;;17.95;3.35;;;26.00;70.20;;;;;;5093977;28;20034;-55
2022/12/27 11:43:44;;;;;;;15.38;3.97;;;26.00;70.30;;;;;;5108106;28;20020;-53
2022/12/27 11:46:34;;;;;;;15.90;3.22;;;26.00;70.40;;;;;;5107247;28;20032;-56
2022/12/27 11:49:05;;;;;;;13.48;3.65;;;26.00;70.70;;;;;;5103599;28;20028;-55
2022/12/27 11:52:00;;;;;;;12.27;3.00;;;26.00;71.00;;;;;;5106757;28;20093;-53
2022/12/27 11:54:51;;;;;;;14.77;3.88;;;26.00;71.30;;;;;;5099447;28;20305;-57
2022/12/27 11:57:31;;;;;;;16.52;3.67;;;26.10;71.30;;;;;;5106957;28;20027;-54
2022/12/27 12:00:13;;;;;;;11.38;3.60;;;26.10;71.70;;;;;;5107322;28;20023;-52
2022/12/27 12:03:17;;;;;;;15.18;3.83;;;26.10;71.90;;;;;;5108755;28;20040;-52
2022/12/27 12:05:57;;;;;;;18.17;3.83;;;26.10;72.20;;;;;;5107730;28;20016;-53
2022/12/27 12:08:34;;;;;;;15.10;3.65;;;26.10;72.40;;;;;;5107580;28;20101;-52
2022/12/27 12:11:01;;;;;;;17.15;4.65;;;26.10;72.60;;;;;;5107579;28;20016;-54
2022/12/27 12:13:55;;;;;;;47.58;5.32;;;26.10;72.70;;;;;;5107248;28;20198;-53
2022/12/27 12:16:46;;;;;;;16.17;4.13;;;26.20;72.70;;;;;;5107541;28;20024;-53
2022/12/27 12:19:42;;;;;;;18.55;4.28;;;26.20;72.90;;;;;;5107536;28;20205;-56
2022/12/27 12:22:59;;;;;;;16.08;4.25;;;26.20;72.90;;;;;;5107644;28;20020;-55
2022/12/27 12:25:58;;;;;;;18.88;3.70;;;26.20;73.10;;;;;;5104712;28;20040;-56
2022/12/27 12:28:31;;;;;;;14.90;3.70;;;26.30;73.40;;;;;;5105647;28;20015;-53
2022/12/27 12:31:23;;;;;;;14.63;3.67;;;26.30;73.40;;;;;;5106581;28;20031;-55
2022/12/27 12:34:00;;;;;;;12.23;3.50;;;26.30;73.50;;;;;;5107427;28;20024;-57
2022/12/27 12:36:36;;;;;;;9.10;3.35;;;26.30;73.50;;;;;;5088946;28;20347;-54
2022/12/27 12:39:38;;;;;;;10.25;3.67;;;26.30;73.50;;;;;;5107202;28;20012;-59
2022/12/27 12:42:19;;;;;;;13.20;3.58;;;26.40;73.70;;;;;;5106005;28;20095;-55
2022/12/27 12:44:59;;;;;;;10.23;3.35;;;26.40;73.60;;;;;;5088806;28;20027;-57
2022/12/27 12:47:41;;;;;;;19.40;3.83;;;26.50;73.70;;;;;;5088791;28;20028;-52
2022/12/27 12:50:44;;;;;;;13.52;3.30;;;26.50;73.60;;;;;;5106469;28;20124;-52
2022/12/27 12:53:17;;;;;;;9.90;3.33;;;26.60;73.80;;;;;;5088653;28;20050;-52
2022/12/27 12:56:11;;;;;;;8.77;3.35;;;26.60;73.60;;;;;;5106756;28;20105;-54
2022/12/27 12:59:18;;;;;;;7.20;2.90;;;26.60;73.50;;;;;;5106959;28;20028;-55
2022/12/27 13:02:03;;;;;;;8.23;3.25;;;26.60;74.20;;;;;;5106651;28;20204;-52
2022/12/27 13:04:57;;;;;;;10.93;3.25;;;26.60;73.60;;;;;;5107364;28;20036;-54
2022/12/27 13:07:46;;;;;;;8.23;3.33;;;26.70;73.70;;;;;;5106631;28;20276;-54
2022/12/27 13:10:51;;;;;;;10.00;3.67;;;26.70;73.50;;;;;;5106437;28;20044;-54
2022/12/27 13:13:42;;;;;;;8.07;3.25;;;26.70;73.50;;;;;;5088115;28;20406;-56
2022/12/27 13:16:12;;;;;;;12.13;3.00;;;26.70;73.40;;;;;;5106021;28;20039;-55
2022/12/27 13:18:55;;;;;;;10.55;3.25;;;26.80;73.40;;;;;;5105928;28;20150;-53
2022/12/27 13:21:24;;;;;;;8.32;3.10;;;26.80;73.30;;;;;;5090204;28;20036;-53
2022/12/27 13:24:16;;;;;;;9.07;3.38;;;26.80;73.30;;;;;;5106439;28;20016;-55
2022/12/27 13:27:15;;;;;;;10.27;2.97;;;26.90;73.40;;;;;;5106139;28;20062;-55
2022/12/27 13:29:50;;;;;;;8.18;2.85;;;26.90;73.30;;;;;;5106156;28;20208;-52
2022/12/27 13:32:35;;;;;;;6.90;2.58;;;26.90;73.30;;;;;;5106024;28;20312;-52
2022/12/27 13:35:24;;;;;;;6.95;2.88;;;26.90;73.20;;;;;;5108872;28;20027;-51
2022/12/27 13:38:02;;;;;;;6.28;2.90;;;26.90;73.20;;;;;;5106024;28;20328;-53
2022/12/27 13:40:34;;;;;;;8.35;3.08;;;26.90;73.10;;;;;;5105101;28;20012;-53
2022/12/27 13:43:25;;;;;;;7.45;2.97;;;27.00;73.10;;;;;;5106063;28;20360;-53
2022/12/27 13:46:23;;;;;;;8.40;2.85;;;27.00;73.00;;;;;;5105746;28;20020;-53
2022/12/27 13:49:19;;;;;;;6.18;3.00;;;27.00;72.90;;;;;;5105877;28;20078;-53
2022/12/27 13:51:52;;;;;;;9.02;2.63;;;27.10;73.00;;;;;;5085270;28;20033;-53
2022/12/27 13:54:27;;;;;;;7.10;2.80;;;27.10;72.90;;;;;;5085645;28;20217;-57
2022/12/27 13:57:12;;;;;;;7.18;3.20;;;27.20;72.80;;;;;;5085376;28;20008;-54
2022/12/27 13:59:41;;;;;;;7.40;2.80;;;27.20;72.80;;;;;;5100823;28;20043;-55
2022/12/27 14:02:29;;;;;;;7.35;3.33;;;27.20;72.80;;;;;;5104711;28;20058;-54
2022/12/27 14:05:04;;;;;;;6.82;2.70;;;27.20;72.70;;;;;;5105686;28;20040;-54
2022/12/27 14:07:42;;;;;;;7.53;2.70;;;27.20;72.50;;;;;;5105541;28;20212;-54
2022/12/27 14:10:39;;;;;;;7.10;2.88;;;27.30;72.50;;;;;;5105403;28;20060;-53
2022/12/27 14:13:09;;;;;;;8.52;2.70;;;27.30;72.30;;;;;;5105193;28;20020;-52
2022/12/27 14:16:15;;;;;;;9.75;3.00;;;27.30;72.00;;;;;;5105524;28;20039;-55
2022/12/27 14:18:54;;;;;;;5.97;2.67;;;27.30;71.80;;;;;;5091590;28;20035;-53
2022/12/27 14:21:35;;;;;;;10.82;3.00;;;27.40;71.90;;;;;;5104803;28;20020;-52
2022/12/27 14:24:42;;;;;;;8.05;3.00;;;27.40;71.80;;;;;;5104991;28;20212;-53
2022/12/27 14:27:52;;;;;;;5.68;2.72;;;27.40;71.80;;;;;;5104960;28;20024;-58
2022/12/27 14:30:46;;;;;;;10.55;2.97;;;27.40;71.80;;;;;;5105128;28;20020;-53
2022/12/27 14:34:08;;;;;;;9.77;3.00;;;27.50;71.90;;;;;;5103715;28;20040;-53
2022/12/27 14:36:50;;;;;;;8.60;3.13;;;27.50;71.70;;;;;;5102319;28;20343;-54
2022/12/27 14:39:20;;;;;;;7.03;3.10;;;27.60;71.60;;;;;;5105154;28;20297;-53
2022/12/27 14:42:22;;;;;;;7.88;2.88;;;27.60;71.50;;;;;;5105034;28;20164;-54
2022/12/27 14:45:25;;;;;;;7.88;3.15;;;27.60;71.40;;;;;;5015496;28;20054;-55
2022/12/27 14:48:20;;;;;;;9.43;2.80;;;27.60;71.50;;;;;;5104675;28;20020;-56
2022/12/27 14:51:30;;;;;;;6.78;2.97;;;27.70;71.40;;;;;;5063173;28;20275;-55
2022/12/27 14:54:17;;;;;;;8.80;3.28;;;27.70;71.30;;;;;;5104494;28;20059;-55
2022/12/27 14:56:54;;;;;;;7.82;2.95;;;27.70;71.40;;;;;;5104694;28;20020;-54
2022/12/27 14:59:43;;;;;;;8.63;2.83;;;27.70;71.40;;;;;;5104772;28;20024;-51
2022/12/27 15:02:50;;;;;;;9.70;3.15;;;27.80;71.50;;;;;;5103975;28;20028;-53
2022/12/27 15:05:38;;;;;;;6.88;2.72;;;27.80;71.30;;;;;;5104463;28;20036;-53